Terminal Aerodrome Forecast
Issued by NWS Missoula, MT

Home | Current Version | Previous Version | Text Only | Print | Product List | Glossary On
Versions: 1 2 3 4 5 6 7 8 9 10 11 12 13
954
FTUS45 KMSO 240019 RRA
TAFGPI
TAF
KGPI 240019Z 2400/2424 15010KT 6SM FU SCT120
     FM240100 22006KT P6SM BKN100
     FM242100 28012KT P6SM VCSH BKN100=

USA.gov is the U.S. government's official web portal to all federal, state and local government web resources and services.